PWSweather.com
Personal Weather Stations
Station Observations
KNYSYRAC2
Fairmount Hills, Fairmount, NY 13219

Fairmount HillsFairmount, NY 13219

Lat: 43.03602, Lon: -76.247151

Elevation: 663

Station Type: Ambient Weather WS-2080

http://weather.cerchia.com

Latest ConditionsUpdated 7:00:00 AM EST Sunday, Jan 20, 2019
Currently Today's Max Today's Min Today's Average
Temperature 12.5°F-10.8°C 18.2°F-7.7°C 12.5°F-10.8°C 17.0°F-8.3°C
Dew Point 7.2°F-13.8°C 13.4°F-10.3°C 7.2°F-13.8°C 11.9°F-11.2°C
Winds 3.0 mph NNE4.8 kmh NNE 4.4 mph -7.1 kmh - - 2.2 mph 3.5 kmh
Wind Gusts 6.7 mph10.8 kmh 13.4 mph21.6 kmh - -
Humidity 79% 81% 79% 80%
Pressure 29.54 in1000.3 mb 29.79 in1008.8 mb 29.53 in1000.0 mb -
Hour Temp Dew Point Humidity Winds Wind Gusts Pressure Precip Precip Rate Daily Precip Total
07:00 AM 12.5°F-10.8°C 7.2°F-13.8°C 79% 3.0 mph NNE4.8 kmh NNE 6.7 mph10.8 kmh 29.54 in1000.3 mb 0.00 in0.0 mm 0.00 in0.0 mm 0.00 in0.0 mm
06:45 AM 15.2°F-9.3°C 10.1°F-12.2°C 80% 2.7 mph NE4.3 kmh NE 7.5 mph12.1 kmh 29.55 in1000.7 mb 0.00 in0.0 mm 0.00 in0.0 mm 0.00 in0.0 mm
06:30 AM 18.2°F-7.7°C 13.4°F-10.3°C 81% 2.4 mph NE3.9 kmh NE 9.5 mph15.3 kmh 29.53 in1000.0 mb 0.00 in0.0 mm 0.00 in0.0 mm 0.00 in0.0 mm
06:15 AM 18.0°F-7.8°C 13.2°F-10.4°C 81% 3.3 mph E5.3 kmh E 13.4 mph21.6 kmh 29.54 in1000.3 mb 0.00 in0.0 mm 0.00 in0.0 mm 0.00 in0.0 mm
06:00 AM 17.9°F-7.8°C 13.0°F-10.6°C 81% 4.4 mph ENE7.1 kmh ENE 12.3 mph19.8 kmh 29.54 in1000.3 mb 0.00 in0.0 mm 0.00 in0.0 mm 0.00 in0.0 mm
05:45 AM 17.7°F-7.9°C 12.8°F-10.7°C 81% 1.7 mph ENE2.7 kmh ENE 8.7 mph14.0 kmh 29.55 in1000.7 mb 0.00 in0.0 mm 0.00 in0.0 mm 0.00 in0.0 mm
05:30 AM 17.7°F-7.9°C 12.8°F-10.7°C 81% 2.5 mph E4.0 kmh E 5.6 mph9.0 kmh 29.56 in1001.0 mb 0.00 in0.0 mm 0.00 in0.0 mm 0.00 in0.0 mm
05:15 AM 17.7°F-7.9°C 12.8°F-10.7°C 81% 3.6 mph NE5.8 kmh NE 7.5 mph12.1 kmh 29.57 in1001.4 mb 0.00 in0.0 mm 0.00 in0.0 mm 0.00 in0.0 mm
05:00 AM 17.5°F-8.1°C 12.7°F-10.7°C 81% 2.6 mph NE4.2 kmh NE 9.5 mph15.3 kmh 29.57 in1001.4 mb 0.00 in0.0 mm 0.00 in0.0 mm 0.00 in0.0 mm
04:45 AM 17.5°F-8.1°C 12.4°F-10.9°C 80% 2.3 mph ENE3.7 kmh ENE 8.7 mph14.0 kmh 29.58 in1001.7 mb 0.00 in0.0 mm 0.00 in0.0 mm 0.00 in0.0 mm
04:30 AM 17.3°F-8.2°C 12.2°F-11.0°C 80% 4.3 mph NE6.9 kmh NE 12.3 mph19.8 kmh 29.58 in1001.7 mb 0.00 in0.0 mm 0.00 in0.0 mm 0.00 in0.0 mm
04:15 AM 17.1°F-8.3°C 12.0°F-11.1°C 80% 2.8 mph E4.5 kmh E 10.3 mph16.6 kmh 29.60 in1002.4 mb 0.00 in0.0 mm 0.00 in0.0 mm 0.00 in0.0 mm
04:00 AM 17.0°F-8.3°C 11.9°F-11.2°C 80% 1.4 mph NE2.3 kmh NE 6.7 mph10.8 kmh 29.63 in1003.4 mb 0.00 in0.0 mm 0.00 in0.0 mm 0.00 in0.0 mm
03:45 AM 16.8°F-8.4°C 11.7°F-11.3°C 80% 1.3 mph NE2.1 kmh NE 6.7 mph10.8 kmh 29.61 in1002.7 mb 0.00 in0.0 mm 0.00 in0.0 mm 0.00 in0.0 mm
03:30 AM 16.8°F-8.4°C 11.7°F-11.3°C 80% 1.8 mph ENE2.9 kmh ENE 5.6 mph9.0 kmh 29.64 in1003.7 mb 0.00 in0.0 mm 0.00 in0.0 mm 0.00 in0.0 mm
03:15 AM 17.0°F-8.3°C 11.9°F-11.2°C 80% 3.2 mph ENE5.1 kmh ENE 6.7 mph10.8 kmh 29.65 in1004.1 mb 0.00 in0.0 mm 0.00 in0.0 mm 0.00 in0.0 mm
03:00 AM 17.3°F-8.2°C 12.2°F-11.0°C 80% 2.7 mph NE4.3 kmh NE 6.7 mph10.8 kmh 29.67 in1004.7 mb 0.00 in0.0 mm 0.00 in0.0 mm 0.00 in0.0 mm
02:45 AM 17.1°F-8.3°C 12.0°F-11.1°C 80% 1.8 mph E2.9 kmh E 6.7 mph10.8 kmh 29.69 in1005.4 mb 0.00 in0.0 mm 0.00 in0.0 mm 0.00 in0.0 mm
02:30 AM 17.1°F-8.3°C 12.0°F-11.1°C 80% 3.3 mph ENE5.3 kmh ENE 9.5 mph15.3 kmh 29.69 in1005.4 mb 0.00 in0.0 mm 0.00 in0.0 mm 0.00 in0.0 mm
02:15 AM 17.1°F-8.3°C 12.0°F-11.1°C 80% 2.3 mph ENE3.7 kmh ENE 5.6 mph9.0 kmh 29.70 in1005.8 mb 0.00 in0.0 mm 0.00 in0.0 mm 0.00 in0.0 mm
02:00 AM 17.0°F-8.3°C 11.9°F-11.2°C 80% 1.8 mph ENE2.9 kmh ENE 10.3 mph16.6 kmh 29.70 in1005.8 mb 0.00 in0.0 mm 0.00 in0.0 mm 0.00 in0.0 mm
01:45 AM 17.0°F-8.3°C 11.9°F-11.2°C 80% 1.6 mph ENE2.6 kmh ENE 5.6 mph9.0 kmh 29.72 in1006.4 mb 0.00 in0.0 mm 0.00 in0.0 mm 0.00 in0.0 mm
01:30 AM 16.6°F-8.6°C 11.5°F-11.4°C 80% 0.4 mph E0.6 kmh E 3.9 mph6.3 kmh 29.71 in1006.1 mb 0.00 in0.0 mm 0.00 in0.0 mm 0.00 in0.0 mm
01:15 AM 16.6°F-8.6°C 11.2°F-11.6°C 79% 0.2 mph E0.3 kmh E 2.8 mph4.5 kmh 29.73 in1006.8 mb 0.00 in0.0 mm 0.00 in0.0 mm 0.00 in0.0 mm
01:00 AM 16.6°F-8.6°C 11.2°F-11.6°C 79% 1.5 mph E2.4 kmh E 3.9 mph6.3 kmh 29.73 in1006.8 mb 0.00 in0.0 mm 0.00 in0.0 mm 0.00 in0.0 mm
12:45 AM 16.6°F-8.6°C 11.2°F-11.6°C 79% 1.9 mph E3.1 kmh E 5.6 mph9.0 kmh 29.75 in1007.5 mb 0.00 in0.0 mm 0.00 in0.0 mm 0.00 in0.0 mm
12:30 AM 16.8°F-8.4°C 11.4°F-11.4°C 79% 1.4 mph E2.3 kmh E 3.9 mph6.3 kmh 29.76 in1007.8 mb 0.00 in0.0 mm 0.00 in0.0 mm 0.00 in0.0 mm
12:15 AM 17.0°F-8.3°C 11.9°F-11.2°C 80% 1.0 mph E1.6 kmh E 3.9 mph6.3 kmh 29.78 in1008.5 mb 0.00 in0.0 mm 0.00 in0.0 mm 0.00 in0.0 mm
12:00 AM 17.0°F-8.3°C 11.6°F-11.3°C 79% 0.5 mph E0.8 kmh E 3.9 mph6.3 kmh 29.79 in1008.8 mb 0.00 in0.0 mm 0.00 in0.0 mm 0.00 in0.0 mm